Time;durP1;ratioP1;P1;durP2;ratioP2;P2;SDS_P1;SDS_P2;PMS_P1;PMS_P2;Temp;Humidity;BMP_temperature;BMP_pressure;BME280_temperature;BME280_humidity;BME280_pressure;Samples;Min_cycle;Max_cycle;Signal;HPM_P1;HPM_P2
2023/01/15 00:00:14;;;;;;;0.63;0.47;;;9.90;99.90;;;;;;5056399;28;20045;-82
2023/01/15 00:02:40;;;;;;;0.10;0.10;;;9.90;99.90;;;;;;5045012;28;20079;-83
2023/01/15 00:05:06;;;;;;;0.08;0.08;;;9.80;99.90;;;;;;5045460;28;20029;-84
2023/01/15 00:07:32;;;;;;;0.10;0.10;;;10.00;99.90;;;;;;5040538;28;20404;-83
2023/01/15 00:09:58;;;;;;;0.10;0.10;;;10.00;99.90;;;;;;5041541;28;20057;-81
2023/01/15 00:12:24;;;;;;;0.20;0.20;;;9.90;99.90;;;;;;5043288;28;20446;-81
2023/01/15 00:14:49;;;;;;;0.10;0.10;;;9.90;99.90;;;;;;5045167;28;20040;-81
2023/01/15 00:17:15;;;;;;;0.98;0.25;;;9.90;99.90;;;;;;5045443;28;20186;-82
2023/01/15 00:19:41;;;;;;;0.10;0.10;;;9.90;99.90;;;;;;5045366;28;20435;-81
2023/01/15 00:22:06;;;;;;;0.50;0.50;;;9.80;99.90;;;;;;5045200;28;20025;-82
2023/01/15 00:30:00;;;;;;;0.10;0.10;;;9.70;99.90;;;;;;5045683;28;20553;-79
2023/01/15 00:32:28;;;;;;;0.10;0.10;;;9.60;99.90;;;;;;5048265;28;20017;-82
2023/01/15 00:34:54;;;;;;;0.20;0.20;;;9.50;99.90;;;;;;5050599;28;20064;-82
2023/01/15 00:37:20;;;;;;;0.10;0.10;;;9.50;99.90;;;;;;5043467;28;20037;-81
2023/01/15 00:39:46;;;;;;;0.27;0.27;;;9.50;99.90;;;;;;5044199;28;20267;-82
2023/01/15 00:42:12;;;;;;;0.10;0.10;;;9.70;99.90;;;;;;5045332;28;20025;-83
2023/01/15 00:44:38;;;;;;;0.10;0.10;;;9.70;99.90;;;;;;5044989;28;20071;-82
2023/01/15 00:47:05;;;;;;;0.20;0.20;;;9.90;99.90;;;;;;5049039;28;20075;-82
2023/01/15 00:49:31;;;;;;;1.17;1.08;;;9.70;99.90;;;;;;5052154;28;20033;-82
2023/01/15 00:51:57;;;;;;;0.10;0.10;;;9.70;99.90;;;;;;5048052;28;20040;-82
2023/01/15 00:54:22;;;;;;;0.20;0.20;;;9.70;99.90;;;;;;5045566;28;20022;-82
2023/01/15 00:56:48;;;;;;;0.30;0.30;;;9.70;99.90;;;;;;5044163;28;20038;-82
2023/01/15 00:59:14;;;;;;;0.20;0.20;;;9.70;99.90;;;;;;5044178;28;20017;-82
2023/01/15 01:01:39;;;;;;;0.10;0.10;;;9.40;99.90;;;;;;5042061;28;20037;-82
2023/01/15 01:04:05;;;;;;;0.17;0.17;;;9.20;99.90;;;;;;5044137;28;20100;-82
2023/01/15 01:06:31;;;;;;;0.10;0.10;;;9.30;99.90;;;;;;5039827;28;20524;-82
2023/01/15 01:08:57;;;;;;;0.30;0.30;;;9.20;99.90;;;;;;5043522;28;20053;-83
2023/01/15 01:11:25;;;;;;;0.55;0.55;;;9.10;99.90;;;;;;5043909;28;20036;-81
2023/01/15 01:13:52;;;;;;;0.47;0.47;;;9.10;99.90;;;;;;5038829;28;20031;-81
2023/01/15 01:16:24;;;;;;;0.32;0.25;;;9.10;99.90;;;;;;5043676;28;20404;-80
2023/01/15 01:18:50;;;;;;;0.70;0.57;;;9.00;99.90;;;;;;5042961;28;20029;-80
2023/01/15 01:21:16;;;;;;;0.10;0.10;;;9.10;99.90;;;;;;5043718;28;20037;-80
2023/01/15 01:23:41;;;;;;;0.10;0.10;;;9.00;99.90;;;;;;5044084;28;20710;-79
2023/01/15 01:26:07;;;;;;;0.30;0.25;;;9.00;99.90;;;;;;5043818;28;20040;-80
2023/01/15 01:28:33;;;;;;;0.20;0.20;;;8.90;99.90;;;;;;5043806;28;20025;-80
2023/01/15 01:30:58;;;;;;;0.43;0.30;;;8.80;99.90;;;;;;5043871;28;20413;-79
2023/01/15 01:33:24;;;;;;;0.10;0.10;;;8.90;99.90;;;;;;5044043;28;20021;-80
2023/01/15 01:35:50;;;;;;;7.47;2.30;;;8.90;99.90;;;;;;5043751;28;20091;-80
2023/01/15 01:38:16;;;;;;;1.40;0.73;;;8.80;99.90;;;;;;5043565;28;20564;-81
2023/01/15 01:40:42;;;;;;;0.10;0.10;;;8.70;99.90;;;;;;5043504;28;20037;-80
2023/01/15 01:43:23;;;;;;;0.10;0.10;;;8.80;99.90;;;;;;5054955;28;20496;-80
2023/01/15 01:45:49;;;;;;;0.25;0.25;;;8.90;99.90;;;;;;5043276;28;20024;-79
2023/01/15 01:48:17;;;;;;;0.30;0.30;;;8.90;99.90;;;;;;5043609;28;20828;-81
2023/01/15 01:50:44;;;;;;;0.70;0.60;;;8.90;99.90;;;;;;5043768;28;20833;-80
2023/01/15 01:53:13;;;;;;;;;;;8.80;99.90;;;;;;5043407;28;20021;-81
2023/01/15 01:55:39;;;;;;;0.40;0.40;;;8.70;99.90;;;;;;5042956;28;19955;-82
2023/01/15 01:58:08;;;;;;;0.10;0.10;;;8.90;99.90;;;;;;5042701;28;20132;-81
2023/01/15 02:00:35;;;;;;;0.50;0.50;;;8.80;99.90;;;;;;5044676;28;20083;-82
2023/01/15 02:03:06;;;;;;;0.10;0.10;;;8.80;99.90;;;;;;5042778;28;20028;-81
2023/01/15 02:05:37;;;;;;;1.25;0.22;;;8.80;99.90;;;;;;5042398;28;20068;-82
2023/01/15 02:08:04;;;;;;;0.38;0.38;;;8.70;99.90;;;;;;5038508;28;20053;-82
2023/01/15 02:10:29;;;;;;;;;;;8.70;99.90;;;;;;5037801;28;20154;-81
2023/01/15 02:13:18;;;;;;;2.90;1.07;;;8.70;99.90;;;;;;5041647;28;19912;-82
2023/01/15 02:15:51;;;;;;;0.10;0.10;;;8.80;99.90;;;;;;5040609;28;20132;-81
2023/01/15 02:18:47;;;;;;;0.43;0.43;;;8.80;99.90;;;;;;5040930;28;20032;-80
2023/01/15 02:21:23;;;;;;;0.20;0.20;;;8.40;99.90;;;;;;5042306;28;20040;-79
2023/01/15 02:24:21;;;;;;;0.20;0.20;;;8.80;99.90;;;;;;5042436;28;20041;-80
2023/01/15 02:26:59;;;;;;;0.13;0.13;;;8.80;99.90;;;;;;5032753;28;20135;-81
2023/01/15 02:29:31;;;;;;;0.30;0.30;;;8.70;99.90;;;;;;5042308;28;20059;-82
2023/01/15 02:32:01;;;;;;;0.68;0.68;;;8.70;99.90;;;;;;5040368;28;20028;-81
2023/01/15 02:34:34;;;;;;;0.35;0.35;;;8.70;99.90;;;;;;5042291;28;20017;-81
2023/01/15 02:37:08;;;;;;;0.10;0.10;;;8.80;99.90;;;;;;5042216;28;20727;-80
2023/01/15 02:39:39;;;;;;;0.17;0.17;;;8.90;99.90;;;;;;5054060;28;20033;-80
2023/01/15 02:42:08;;;;;;;1.02;0.77;;;9.10;99.90;;;;;;5041737;28;20029;-82
2023/01/15 02:44:39;;;;;;;0.20;0.20;;;9.30;99.90;;;;;;5042202;28;20033;-80
2023/01/15 02:47:07;;;;;;;0.38;0.38;;;9.40;99.90;;;;;;5041973;28;20029;-81
2023/01/15 02:49:34;;;;;;;0.95;0.60;;;9.50;99.90;;;;;;5041778;28;20029;-80
2023/01/15 02:52:01;;;;;;;0.28;0.28;;;9.50;99.90;;;;;;5039639;28;20053;-81
2023/01/15 02:54:31;;;;;;;0.60;0.60;;;9.50;99.90;;;;;;5041268;28;20028;-82
2023/01/15 02:57:00;;;;;;;9.57;0.88;;;9.50;99.90;;;;;;5041929;28;20032;-80
2023/01/15 02:59:34;;;;;;;0.10;0.10;;;9.60;99.90;;;;;;5041972;28;20025;-80
2023/01/15 03:02:03;;;;;;;0.75;0.30;;;9.60;99.90;;;;;;5041356;28;20037;-80
2023/01/15 03:04:36;;;;;;;0.57;0.57;;;9.70;99.90;;;;;;5040008;28;20036;-81
2023/01/15 03:07:33;;;;;;;0.10;0.10;;;9.70;99.90;;;;;;5040091;28;20029;-79
2023/01/15 03:09:59;;;;;;;0.10;0.10;;;9.70;99.90;;;;;;5040315;28;20091;-80
2023/01/15 03:13:02;;;;;;;0.43;0.43;;;9.70;99.90;;;;;;5041789;28;20131;-79
2023/01/15 03:18:34;;;;;;;2.05;0.90;;;9.80;99.90;;;;;;5039589;28;20102;-82
2023/01/15 03:21:07;;;;;;;0.20;0.20;;;9.80;99.90;;;;;;5041630;28;20041;-82
2023/01/15 03:23:36;;;;;;;0.13;0.13;;;9.60;99.90;;;;;;5041111;28;20062;-82
2023/01/15 03:26:02;;;;;;;0.45;0.45;;;9.40;99.90;;;;;;5047770;28;20032;-81
2023/01/15 03:28:32;;;;;;;0.45;0.40;;;9.30;99.90;;;;;;5049447;28;20032;-81
2023/01/15 03:30:58;;;;;;;0.10;0.10;;;9.40;99.90;;;;;;5049776;28;20037;-81
2023/01/15 03:33:25;;;;;;;0.50;0.27;;;9.50;99.90;;;;;;5046508;28;20024;-80
2023/01/15 03:35:57;;;;;;;0.30;0.30;;;9.60;99.90;;;;;;5050348;28;20029;-81
2023/01/15 03:38:34;;;;;;;0.50;0.47;;;9.50;99.90;;;;;;5048310;28;20025;-80
2023/01/15 03:41:19;;;;;;;0.10;0.10;;;9.50;99.90;;;;;;5050415;28;20167;-81
2023/01/15 03:44:13;;;;;;;0.10;0.10;;;9.50;99.90;;;;;;5045338;28;20155;-81
2023/01/15 03:46:44;;;;;;;0.20;0.20;;;9.70;99.90;;;;;;5050359;28;20044;-81
2023/01/15 03:49:32;;;;;;;0.10;0.10;;;9.70;99.90;;;;;;5046271;28;20039;-81
2023/01/15 03:52:32;;;;;;;0.47;0.47;;;9.70;99.90;;;;;;5047998;28;20036;-81
2023/01/15 03:55:10;;;;;;;0.65;0.47;;;9.70;99.90;;;;;;5043724;28;20107;-81
2023/01/15 03:57:48;;;;;;;0.15;0.15;;;9.80;99.90;;;;;;5050653;28;20025;-81
2023/01/15 04:00:25;;;;;;;0.50;0.50;;;9.80;99.90;;;;;;5044925;28;20037;-82
2023/01/15 04:02:53;;;;;;;0.20;0.20;;;9.80;99.90;;;;;;5045232;28;20021;-81
2023/01/15 04:05:19;;;;;;;0.10;0.10;;;9.80;99.90;;;;;;5047958;28;20060;-81
2023/01/15 04:07:47;;;;;;;0.10;0.10;;;9.70;99.90;;;;;;5046384;28;20787;-81
2023/01/15 04:10:12;;;;;;;21.42;0.75;;;9.70;99.90;;;;;;5048775;28;20340;-81
2023/01/15 04:12:38;;;;;;;0.35;0.35;;;9.60;99.90;;;;;;5045828;28;20512;-80
2023/01/15 04:15:04;;;;;;;0.22;0.22;;;9.70;99.90;;;;;;5049525;28;20481;-80
2023/01/15 04:17:30;;;;;;;0.55;0.55;;;9.60;99.90;;;;;;5059296;28;20837;-81
2023/01/15 04:19:56;;;;;;;0.10;0.10;;;9.60;99.90;;;;;;5047621;28;20033;-80
2023/01/15 04:22:21;;;;;;;2.17;1.40;;;9.60;99.90;;;;;;5047192;28;20091;-80
2023/01/15 04:24:47;;;;;;;0.20;0.20;;;9.60;99.90;;;;;;5047569;28;20071;-78
2023/01/15 04:27:13;;;;;;;0.50;0.50;;;9.60;99.90;;;;;;5047155;28;20075;-80
2023/01/15 04:29:39;;;;;;;0.65;0.65;;;9.70;99.90;;;;;;5047470;28;20640;-80
2023/01/15 04:32:04;;;;;;;0.25;0.25;;;9.70;99.90;;;;;;5058984;28;20511;-80
2023/01/15 04:34:30;;;;;;;0.20;0.20;;;9.70;99.90;;;;;;5046186;28;20041;-80
2023/01/15 04:36:56;;;;;;;0.28;0.28;;;9.70;99.90;;;;;;5043973;28;20029;-80
2023/01/15 04:39:22;;;;;;;0.47;0.47;;;9.70;99.90;;;;;;5044432;28;20779;-80
2023/01/15 04:44:34;;;;;;;0.20;0.20;;;9.80;99.90;;;;;;5037938;28;20082;-80
2023/01/15 04:47:00;;;;;;;0.13;0.13;;;9.80;99.90;;;;;;5044384;28;20040;-81
2023/01/15 04:49:26;;;;;;;7.37;0.73;;;9.80;99.90;;;;;;5044219;28;20029;-81
2023/01/15 04:51:52;;;;;;;0.20;0.20;;;9.80;99.90;;;;;;5041412;28;20544;-81
2023/01/15 04:54:18;;;;;;;15.60;0.90;;;9.70;99.90;;;;;;5044220;28;20035;-79
2023/01/15 04:56:46;;;;;;;0.30;0.30;;;9.70;99.90;;;;;;5044316;28;20021;-80
2023/01/15 04:59:16;;;;;;;0.90;0.52;;;9.60;99.90;;;;;;5043734;28;20754;-80
2023/01/15 05:01:42;;;;;;;0.22;0.22;;;9.50;99.90;;;;;;5041826;28;20044;-81
2023/01/15 05:04:08;;;;;;;0.28;0.28;;;9.40;99.90;;;;;;5044579;28;20033;-79
2023/01/15 05:06:34;;;;;;;0.20;0.20;;;9.10;99.90;;;;;;5042508;28;20043;-81
2023/01/15 05:09:01;;;;;;;0.95;0.77;;;8.90;99.90;;;;;;5044000;28;20057;-80
2023/01/15 05:11:27;;;;;;;0.10;0.10;;;8.90;99.90;;;;;;5043526;28;20021;-81
2023/01/15 05:13:54;;;;;;;0.63;0.63;;;8.80;99.90;;;;;;5042977;28;20029;-80
2023/01/15 05:16:29;;;;;;;0.10;0.10;;;8.70;99.90;;;;;;5044023;28;20104;-80
2023/01/15 05:19:03;;;;;;;0.10;0.10;;;8.40;99.90;;;;;;5043433;28;20067;-81
2023/01/15 05:21:32;;;;;;;0.10;0.10;;;8.20;99.90;;;;;;5043455;28;20040;-82
2023/01/15 05:24:00;;;;;;;0.10;0.10;;;8.20;99.90;;;;;;5042547;28;20728;-80
2023/01/15 05:26:26;;;;;;;0.10;0.10;;;8.10;99.90;;;;;;5042914;28;20098;-80
2023/01/15 05:28:54;;;;;;;0.20;0.20;;;8.10;99.90;;;;;;5058250;28;20569;-81
2023/01/15 05:31:20;;;;;;;0.10;0.10;;;8.10;99.90;;;;;;5042433;28;20033;-80
2023/01/15 05:33:47;;;;;;;0.10;0.10;;;8.20;99.90;;;;;;5043218;28;20029;-81
2023/01/15 05:36:16;;;;;;;0.10;0.10;;;8.10;99.90;;;;;;5043239;28;20033;-80
2023/01/15 05:38:43;;;;;;;0.10;0.10;;;8.10;99.90;;;;;;5043784;28;20029;-82
2023/01/15 05:44:08;;;;;;;0.10;0.10;;;8.10;99.90;;;;;;5042489;28;20289;-83
2023/01/15 05:46:35;;;;;;;0.10;0.10;;;8.20;99.90;;;;;;5043430;28;20025;-82
2023/01/15 05:49:03;;;;;;;0.10;0.10;;;8.10;99.90;;;;;;5043513;28;20392;-82
2023/01/15 05:51:29;;;;;;;0.10;0.10;;;8.20;99.90;;;;;;5041713;28;20049;-82
2023/01/15 05:53:58;;;;;;;0.10;0.10;;;8.00;99.90;;;;;;5043157;28;20033;-81
2023/01/15 05:56:24;;;;;;;0.10;0.10;;;8.00;99.90;;;;;;5042945;28;20036;-82
2023/01/15 05:58:50;;;;;;;0.10;0.10;;;7.90;99.90;;;;;;5043573;28;20613;-81
2023/01/15 06:01:16;;;;;;;0.10;0.10;;;8.00;99.90;;;;;;5042753;28;20057;-82
2023/01/15 06:03:42;;;;;;;0.10;0.10;;;8.10;99.90;;;;;;5042933;28;20040;-81
2023/01/15 06:06:12;;;;;;;0.10;0.10;;;8.20;99.90;;;;;;5039785;28;20034;-82
2023/01/15 06:08:38;;;;;;;1.70;0.52;;;8.00;99.90;;;;;;5040979;28;20053;-81
2023/01/15 06:11:05;;;;;;;0.10;0.10;;;7.90;99.90;;;;;;5042914;28;20044;-81
2023/01/15 06:13:31;;;;;;;0.10;0.10;;;7.80;99.90;;;;;;5050569;28;20062;-81
2023/01/15 06:15:58;;;;;;;0.10;0.10;;;7.70;99.90;;;;;;5042774;28;20029;-81
2023/01/15 06:18:24;;;;;;;;;;;7.80;99.90;;;;;;5043605;28;20044;-81
2023/01/15 06:20:50;;;;;;;0.10;0.10;;;7.60;99.90;;;;;;5043014;28;19921;-81
2023/01/15 06:23:17;;;;;;;0.10;0.10;;;7.60;99.90;;;;;;5048394;28;20473;-80
2023/01/15 06:25:42;;;;;;;;;;;7.70;99.90;;;;;;5044290;28;20039;-81
2023/01/15 06:28:09;;;;;;;0.10;0.10;;;7.60;99.90;;;;;;5042445;28;19916;-82
2023/01/15 06:30:36;;;;;;;;;;;7.50;99.90;;;;;;5054776;28;20036;-81
2023/01/15 06:33:01;;;;;;;0.10;0.10;;;7.40;99.90;;;;;;5041174;28;20123;-81
2023/01/15 06:35:27;;;;;;;0.10;0.10;;;7.30;99.90;;;;;;5041156;28;20500;-80
2023/01/15 06:37:53;;;;;;;0.10;0.10;;;7.30;99.90;;;;;;5041634;28;20029;-82
2023/01/15 06:40:19;;;;;;;0.10;0.10;;;7.20;99.90;;;;;;5033800;28;20044;-81
2023/01/15 06:48:23;;;;;;;0.10;0.10;;;7.10;99.90;;;;;;5040373;28;20040;-82
2023/01/15 06:50:49;;;;;;;0.10;0.10;;;7.20;99.90;;;;;;5043482;28;20029;-81
2023/01/15 06:53:14;;;;;;;0.10;0.10;;;7.40;99.90;;;;;;5041786;28;20439;-81
2023/01/15 06:55:40;;;;;;;0.10;0.10;;;7.30;99.90;;;;;;5034263;28;20112;-81
2023/01/15 06:58:06;;;;;;;0.10;0.10;;;7.30;99.90;;;;;;5041413;28;20464;-81
2023/01/15 07:00:32;;;;;;;0.10;0.10;;;7.20;99.90;;;;;;5042025;28;20474;-82
2023/01/15 07:03:02;;;;;;;0.20;0.20;;;7.20;99.90;;;;;;5041961;28;20040;-83
2023/01/15 07:05:28;;;;;;;0.10;0.10;;;7.10;99.90;;;;;;5041677;28;20020;-81
2023/01/15 07:07:54;;;;;;;0.10;0.10;;;7.10;99.90;;;;;;5041534;28;20156;-79
2023/01/15 07:10:20;;;;;;;0.10;0.10;;;7.00;99.90;;;;;;5041701;28;20571;-81
2023/01/15 07:12:45;;;;;;;0.15;0.15;;;7.10;99.90;;;;;;5041743;28;20035;-80
2023/01/15 07:15:11;;;;;;;0.10;0.10;;;7.00;99.90;;;;;;5042004;28;20559;-80
2023/01/15 07:17:37;;;;;;;0.77;0.77;;;6.90;99.90;;;;;;5040795;28;20029;-79
2023/01/15 07:20:03;;;;;;;1.85;0.82;;;6.90;99.90;;;;;;5041573;28;20910;-80
2023/01/15 07:22:29;;;;;;;0.15;0.15;;;6.80;99.90;;;;;;5040885;28;20449;-78
2023/01/15 07:24:55;;;;;;;0.10;0.10;;;6.70;99.90;;;;;;5040764;28;20036;-79
2023/01/15 07:27:21;;;;;;;0.10;0.10;;;6.60;99.90;;;;;;5041597;28;20048;-80
2023/01/15 07:29:48;;;;;;;0.10;0.10;;;6.70;99.90;;;;;;5041961;28;20500;-80
2023/01/15 07:32:14;;;;;;;0.13;0.13;;;6.70;99.90;;;;;;5039804;28;20064;-79
2023/01/15 07:34:40;;;;;;;0.10;0.10;;;6.70;99.90;;;;;;5041410;28;20053;-84
2023/01/15 07:37:06;;;;;;;0.10;0.10;;;6.90;99.90;;;;;;5039674;28;20022;-85
2023/01/15 07:39:32;;;;;;;0.10;0.10;;;6.80;99.90;;;;;;5041960;28;20033;-83
2023/01/15 07:50:15;;;;;;;0.10;0.10;;;6.70;99.90;;;;;;5039102;28;20136;-83
2023/01/15 07:52:41;;;;;;;0.30;0.30;;;6.80;99.90;;;;;;5034189;28;20025;-83
2023/01/15 07:55:08;;;;;;;0.10;0.10;;;6.90;99.90;;;;;;5036531;28;20060;-82
2023/01/15 07:57:35;;;;;;;1.35;0.55;;;6.80;99.90;;;;;;5040435;28;20029;-82
2023/01/15 08:00:01;;;;;;;0.10;0.10;;;6.90;99.90;;;;;;5041319;28;20559;-83
2023/01/15 08:02:27;;;;;;;0.20;0.20;;;6.80;99.90;;;;;;5041820;28;20035;-82
2023/01/15 08:04:53;;;;;;;0.10;0.10;;;6.90;99.90;;;;;;5054350;28;20457;-81
2023/01/15 08:07:18;;;;;;;0.45;0.45;;;6.80;99.90;;;;;;5043998;28;20568;-80
2023/01/15 08:09:44;;;;;;;0.55;0.40;;;6.80;99.90;;;;;;5048520;28;20045;-78
2023/01/15 08:15:13;;;;;;;0.17;0.17;;;6.90;99.90;;;;;;5049669;28;20090;-84
2023/01/15 08:17:44;;;;;;;0.52;0.50;;;7.00;99.90;;;;;;5050597;28;20036;-82
2023/01/15 08:20:24;;;;;;;0.10;0.10;;;6.80;99.90;;;;;;5046502;28;20108;-81
2023/01/15 08:22:50;;;;;;;0.30;0.30;;;6.80;99.90;;;;;;5039740;28;20576;-86
2023/01/15 08:25:18;;;;;;;1.05;0.98;;;7.00;99.90;;;;;;5055475;28;20043;-83
2023/01/15 08:27:45;;;;;;;0.20;0.20;;;7.00;99.90;;;;;;5042211;28;20032;-82
2023/01/15 08:30:15;;;;;;;0.20;0.20;;;7.00;99.90;;;;;;5052085;28;20032;-85
2023/01/15 08:32:40;;;;;;;0.10;0.10;;;7.00;99.90;;;;;;5048922;28;20527;-84
2023/01/15 08:35:07;;;;;;;0.55;0.55;;;7.20;99.90;;;;;;5050018;28;20567;-85
2023/01/15 08:37:33;;;;;;;0.10;0.10;;;7.00;99.90;;;;;;5040025;28;20098;-83
2023/01/15 08:39:59;;;;;;;0.32;0.32;;;7.10;99.90;;;;;;5049699;28;20036;-85
2023/01/15 08:42:25;;;;;;;0.25;0.25;;;7.00;99.90;;;;;;5046978;28;20680;-83
2023/01/15 08:44:50;;;;;;;0.10;0.10;;;7.00;99.90;;;;;;5041079;28;20106;-82
2023/01/15 08:47:17;;;;;;;0.25;0.25;;;6.80;99.90;;;;;;5037809;28;21209;-84
2023/01/15 08:49:43;;;;;;;0.10;0.10;;;6.80;99.90;;;;;;5041433;28;20148;-85
2023/01/15 08:52:09;;;;;;;8.02;6.00;;;6.90;99.90;;;;;;5041636;28;20033;-82
2023/01/15 08:54:34;;;;;;;7.93;1.23;;;7.00;99.90;;;;;;5042323;28;20033;-81
2023/01/15 08:57:01;;;;;;;1.20;0.90;;;7.00;99.90;;;;;;5041981;28;20102;-81
2023/01/15 08:59:26;;;;;;;0.30;0.30;;;6.80;99.90;;;;;;5044090;28;20423;-84
2023/01/15 09:01:52;;;;;;;0.13;0.13;;;6.90;99.90;;;;;;5039442;28;20041;-83
2023/01/15 09:04:20;;;;;;;0.10;0.10;;;7.00;99.90;;;;;;5049347;28;20105;-82
2023/01/15 09:06:47;;;;;;;0.20;0.20;;;7.20;99.90;;;;;;5043707;28;20029;-84
2023/01/15 09:09:13;;;;;;;0.20;0.20;;;7.20;99.90;;;;;;5044255;28;20155;-81
2023/01/15 09:11:40;;;;;;;0.10;0.10;;;7.20;99.90;;;;;;5048241;28;20530;-82
2023/01/15 09:14:08;;;;;;;0.25;0.25;;;7.10;99.90;;;;;;5046290;28;20530;-82
2023/01/15 09:16:36;;;;;;;0.10;0.10;;;7.10;99.90;;;;;;5051264;28;20036;-82
2023/01/15 09:19:02;;;;;;;0.10;0.10;;;7.10;99.90;;;;;;5048632;28;20492;-84
2023/01/15 09:21:28;;;;;;;0.10;0.10;;;7.20;99.90;;;;;;5045885;28;20033;-84
2023/01/15 09:23:53;;;;;;;2.42;1.17;;;7.30;99.90;;;;;;5048033;28;20067;-83
2023/01/15 09:26:27;;;;;;;0.57;0.57;;;7.30;99.90;;;;;;5050515;28;20759;-84
2023/01/15 09:28:53;;;;;;;0.30;0.30;;;7.40;99.90;;;;;;5043953;28;20033;-81
2023/01/15 09:31:19;;;;;;;0.70;0.70;;;7.30;99.90;;;;;;5042648;28;20036;-82
2023/01/15 09:33:45;;;;;;;0.98;0.73;;;7.40;99.90;;;;;;5048757;28;20116;-83
2023/01/15 09:36:31;;;;;;;0.10;0.10;;;7.30;99.90;;;;;;5045978;28;20036;-84
2023/01/15 09:38:58;;;;;;;0.10;0.10;;;7.10;99.90;;;;;;5037222;28;20025;-84
2023/01/15 09:44:18;;;;;;;0.10;0.10;;;7.20;99.90;;;;;;5044525;28;20044;-83
2023/01/15 09:46:47;;;;;;;0.30;0.30;;;7.50;99.90;;;;;;5043986;28;20550;-83
2023/01/15 09:49:25;;;;;;;0.10;0.10;;;7.20;99.90;;;;;;5043081;28;20042;-83
2023/01/15 09:52:16;;;;;;;0.40;0.40;;;7.30;99.90;;;;;;5045463;28;20064;-83
2023/01/15 09:55:03;;;;;;;0.45;0.45;;;7.40;99.90;;;;;;5035567;28;20025;-84
2023/01/15 09:57:29;;;;;;;0.38;0.38;;;7.20;99.90;;;;;;5041889;28;20524;-85
2023/01/15 10:00:02;;;;;;;0.40;0.40;;;7.40;99.90;;;;;;5045135;28;20870;-83
2023/01/15 10:02:43;;;;;;;0.20;0.20;;;7.50;99.90;;;;;;5044863;28;20047;-84
2023/01/15 10:05:20;;;;;;;0.65;0.65;;;7.40;99.90;;;;;;5041148;28;20028;-82
2023/01/15 10:08:10;;;;;;;0.10;0.10;;;7.40;99.90;;;;;;5036055;28;20037;-83
2023/01/15 10:10:44;;;;;;;0.40;0.40;;;7.40;99.90;;;;;;5040004;28;20064;-81
2023/01/15 10:13:21;;;;;;;0.10;0.10;;;7.30;99.90;;;;;;5039791;28;20029;-83
2023/01/15 10:15:47;;;;;;;0.60;0.60;;;7.30;99.90;;;;;;5042925;28;20025;-84
2023/01/15 10:18:20;;;;;;;0.10;0.10;;;7.40;99.90;;;;;;5045061;28;20036;-83
2023/01/15 10:21:07;;;;;;;0.20;0.20;;;7.30;99.90;;;;;;5040978;28;20432;-83
2023/01/15 10:23:54;;;;;;;0.20;0.20;;;7.40;99.90;;;;;;5040578;28;20459;-83
2023/01/15 10:26:25;;;;;;;0.55;0.55;;;7.40;99.90;;;;;;5032316;28;20036;-84
2023/01/15 10:28:57;;;;;;;0.60;0.60;;;7.40;99.90;;;;;;5035322;28;20067;-83
2023/01/15 10:31:35;;;;;;;0.20;0.20;;;7.40;99.90;;;;;;5038268;28;20030;-84
2023/01/15 10:34:06;;;;;;;0.40;0.40;;;7.70;99.90;;;;;;5040008;28;20028;-85
2023/01/15 10:36:52;;;;;;;0.20;0.20;;;7.60;99.90;;;;;;5031750;28;20125;-86
2023/01/15 10:39:33;;;;;;;1.10;0.85;;;7.70;99.90;;;;;;5036027;28;20033;-83
2023/01/15 10:42:39;;;;;;;0.25;0.25;;;7.50;99.90;;;;;;5039767;28;20044;-85
2023/01/15 10:45:11;;;;;;;;;;;7.50;99.90;;;;;;5006240;28;20084;-84
2023/01/15 10:47:39;;;;;;;0.20;0.20;;;7.30;99.90;;;;;;5047634;28;19913;-85
2023/01/15 10:50:21;;;;;;;7.88;1.27;;;7.20;99.90;;;;;;5050760;28;20882;-85
2023/01/15 10:53:22;;;;;;;0.15;0.15;;;7.20;99.90;;;;;;5037813;28;20526;-84
2023/01/15 10:55:53;;;;;;;0.10;0.10;;;7.30;99.90;;;;;;5033882;28;20033;-84
2023/01/15 10:58:33;;;;;;;0.10;0.10;;;7.60;99.90;;;;;;5054661;28;20025;-84
2023/01/15 11:01:31;;;;;;;0.20;0.20;;;7.90;99.90;;;;;;5038187;28;20561;-85
2023/01/15 11:03:57;;;;;;;0.22;0.22;;;8.20;99.90;;;;;;5017100;28;20037;-85
2023/01/15 11:06:26;;;;;;;0.15;0.15;;;8.60;99.90;;;;;;5040275;28;20025;-85
2023/01/15 11:08:54;;;;;;;0.10;0.10;;;8.90;99.90;;;;;;5037878;28;20085;-84
2023/01/15 11:19:35;;;;;;;0.30;0.30;;;9.00;99.90;;;;;;5042079;28;20051;-85
2023/01/15 11:19:42;;;;;;;0.20;0.20;;;8.40;99.90;;;;;;5038584;28;20033;-85
2023/01/15 11:22:10;;;;;;;0.10;0.10;;;8.10;99.90;;;;;;5039020;28;20045;-85
2023/01/15 11:24:44;;;;;;;0.10;0.10;;;7.90;99.90;;;;;;5039242;28;20889;-85
2023/01/15 11:27:18;;;;;;;0.20;0.20;;;8.00;99.90;;;;;;5041027;28;20040;-84
2023/01/15 11:29:49;;;;;;;0.10;0.10;;;7.80;99.90;;;;;;5045941;28;20028;-84
2023/01/15 11:32:22;;;;;;;0.30;0.30;;;7.90;99.90;;;;;;5039745;28;20116;-85
2023/01/15 11:34:59;;;;;;;0.10;0.10;;;8.10;99.90;;;;;;5041569;28;20112;-84
2023/01/15 11:37:26;;;;;;;0.10;0.10;;;8.00;99.90;;;;;;5037953;28;20057;-85
2023/01/15 11:40:07;;;;;;;0.20;0.20;;;7.90;99.90;;;;;;5042243;28;20836;-85
2023/01/15 11:51:18;;;;;;;0.10;0.10;;;7.80;99.90;;;;;;5041298;28;20064;-84
2023/01/15 11:53:49;;;;;;;0.10;0.10;;;8.20;99.90;;;;;;5041014;28;20801;-85
2023/01/15 11:56:20;;;;;;;0.10;0.10;;;8.10;99.90;;;;;;5038616;28;20021;-84
2023/01/15 11:58:52;;;;;;;0.13;0.13;;;8.30;99.90;;;;;;5040117;28;20488;-84
2023/01/15 12:01:30;;;;;;;1.65;0.57;;;9.30;99.90;;;;;;5046781;28;20040;-85
2023/01/15 12:03:59;;;;;;;4.07;0.85;;;9.20;99.90;;;;;;5041287;28;20478;-85
2023/01/15 12:06:26;;;;;;;0.20;0.20;;;9.00;99.90;;;;;;5051961;28;20039;-85
2023/01/15 12:09:25;;;;;;;0.10;0.10;;;9.10;99.90;;;;;;5040956;28;20048;-84
2023/01/15 12:12:00;;;;;;;1.17;1.00;;;8.80;99.90;;;;;;5039729;28;20091;-84
2023/01/15 12:14:31;;;;;;;0.10;0.10;;;8.10;99.90;;;;;;5035639;28;20029;-83
2023/01/15 12:17:22;;;;;;;0.32;0.32;;;8.00;99.90;;;;;;5049106;28;20029;-85
2023/01/15 12:20:32;;;;;;;0.10;0.10;;;7.70;99.90;;;;;;5043788;28;20071;-85
2023/01/15 12:23:09;;;;;;;0.10;0.10;;;7.50;99.90;;;;;;5024656;28;20110;-84
2023/01/15 12:26:07;;;;;;;1.05;0.55;;;7.30;99.90;;;;;;5040544;28;20044;-85
2023/01/15 12:28:43;;;;;;;0.10;0.10;;;7.00;99.90;;;;;;5037749;28;20021;-85
2023/01/15 12:31:17;;;;;;;0.10;0.10;;;7.10;99.90;;;;;;5030073;28;20120;-85
2023/01/15 12:34:13;;;;;;;0.40;0.40;;;7.60;99.90;;;;;;5029871;28;20617;-86
2023/01/15 12:36:57;;;;;;;0.90;0.80;;;7.50;99.90;;;;;;5032877;28;20072;-85
2023/01/15 12:39:44;;;;;;;0.10;0.10;;;7.50;99.90;;;;;;5042948;28;20095;-85
2023/01/15 12:45:08;;;;;;;0.25;0.25;;;7.50;99.90;;;;;;5044666;28;20047;-85
2023/01/15 12:47:43;;;;;;;7.90;3.70;;;7.50;99.90;;;;;;5039448;28;20055;-85
2023/01/15 12:50:34;;;;;;;0.88;0.88;;;7.60;99.90;;;;;;5034864;28;20140;-85
2023/01/15 12:53:16;;;;;;;0.20;0.20;;;7.70;99.90;;;;;;5039576;28;20077;-85
2023/01/15 12:55:55;;;;;;;2.53;1.48;;;8.00;99.90;;;;;;5052421;28;20029;-85
2023/01/15 12:58:35;;;;;;;0.10;0.10;;;8.90;99.90;;;;;;5051568;28;20683;-85
2023/01/15 13:01:25;;;;;;;2.72;1.42;;;8.80;99.90;;;;;;5054963;28;20041;-85
2023/01/15 13:04:44;;;;;;;1.17;0.75;;;8.90;99.90;;;;;;5059947;28;20029;-84
2023/01/15 13:07:40;;;;;;;0.10;0.10;;;9.40;99.90;;;;;;4986228;28;20030;-84
2023/01/15 13:10:23;;;;;;;;;;;9.40;99.90;;;;;;5036258;28;20138;-84
2023/01/15 13:12:52;;;;;;;0.20;0.20;;;9.50;99.90;;;;;;5045321;28;20003;-85
2023/01/15 13:15:24;;;;;;;0.52;0.45;;;9.20;99.90;;;;;;5043423;28;20104;-85
2023/01/15 13:18:00;;;;;;;0.10;0.10;;;9.20;99.90;;;;;;5028839;28;20073;-85
2023/01/15 13:20:43;;;;;;;0.27;0.27;;;9.20;99.90;;;;;;5036585;28;20385;-84
2023/01/15 13:23:30;;;;;;;3.63;0.25;;;9.20;99.90;;;;;;5037197;28;20033;-85
2023/01/15 13:26:25;;;;;;;0.25;0.25;;;8.80;99.90;;;;;;5032786;28;20083;-85
2023/01/15 13:29:04;;;;;;;0.40;0.40;;;8.90;99.90;;;;;;5031030;28;20036;-85
2023/01/15 13:31:32;;;;;;;0.10;0.10;;;8.90;99.90;;;;;;5037666;28;20140;-84
2023/01/15 13:34:06;;;;;;;0.55;0.40;;;9.20;99.90;;;;;;5042108;28;20025;-85
2023/01/15 13:36:40;;;;;;;0.10;0.10;;;9.10;99.90;;;;;;5040517;28;20077;-84
2023/01/15 13:39:10;;;;;;;0.25;0.25;;;9.10;99.90;;;;;;5042038;28;20017;-85
2023/01/15 13:44:33;;;;;;;0.10;0.10;;;8.90;99.90;;;;;;5042084;28;20064;-85
2023/01/15 13:47:08;;;;;;;0.10;0.10;;;9.00;99.90;;;;;;5034935;28;20037;-85
2023/01/15 13:49:49;;;;;;;0.40;0.35;;;8.90;99.90;;;;;;5031090;28;20087;-85
2023/01/15 13:52:42;;;;;;;0.63;0.63;;;8.80;99.90;;;;;;5030440;28;20812;-85
2023/01/15 13:55:15;;;;;;;0.25;0.25;;;8.70;99.90;;;;;;5026134;28;20047;-86
2023/01/15 13:57:41;;;;;;;0.10;0.10;;;8.10;99.90;;;;;;5029721;28;20067;-85
2023/01/15 14:00:25;;;;;;;0.10;0.10;;;8.10;99.90;;;;;;5033838;28;20024;-85
2023/01/15 14:02:53;;;;;;;0.10;0.10;;;8.30;99.90;;;;;;5043876;28;20036;-85
2023/01/15 14:05:25;;;;;;;0.20;0.20;;;8.70;99.90;;;;;;5030295;28;20029;-85
2023/01/15 14:07:51;;;;;;;0.45;0.45;;;8.60;99.90;;;;;;5047830;28;20260;-85
2023/01/15 14:10:17;;;;;;;0.10;0.10;;;8.40;99.90;;;;;;5029698;28;20025;-84
2023/01/15 14:12:53;;;;;;;0.20;0.20;;;8.40;99.90;;;;;;5034403;28;20695;-85